sensor_id;sensor_type;location;lat;lon;timestamp;pressure;altitude;pressure_sealevel;temperature;humidity
48848;BME280;36611;51.638;5.784;2022-07-29T00:01:39;101514.13;;;22.85;39.77
48848;BME280;36611;51.638;5.784;2022-07-29T00:04:11;101512.25;;;22.86;39.93
48848;BME280;36611;51.638;5.784;2022-07-29T00:06:39;101516.72;;;22.87;39.99
48848;BME280;36611;51.638;5.784;2022-07-29T00:09:06;101516.72;;;22.87;39.75
48848;BME280;36611;51.638;5.784;2022-07-29T00:11:33;101513.97;;;22.87;39.97
48848;BME280;36611;51.638;5.784;2022-07-29T00:14:00;101523.03;;;22.87;39.95
48848;BME280;36611;51.638;5.784;2022-07-29T00:16:26;101521.16;;;22.88;39.80
48848;BME280;36611;51.638;5.784;2022-07-29T00:18:53;101519.94;;;22.90;39.91
48848;BME280;36611;51.638;5.784;2022-07-29T00:21:20;101519.09;;;22.90;40.01
48848;BME280;36611;51.638;5.784;2022-07-29T00:23:46;101515.50;;;22.89;39.93
48848;BME280;36611;51.638;5.784;2022-07-29T00:26:13;101513.78;;;22.88;40.00
48848;BME280;36611;51.638;5.784;2022-07-29T00:28:39;101509.19;;;22.89;39.71
48848;BME280;36611;51.638;5.784;2022-07-29T00:31:06;101508.16;;;22.90;39.70
48848;BME280;36611;51.638;5.784;2022-07-29T00:33:36;101511.75;;;22.90;39.75
48848;BME280;36611;51.638;5.784;2022-07-29T00:36:02;101514.47;;;22.90;40.22
48848;BME280;36611;51.638;5.784;2022-07-29T00:38:29;101508.81;;;22.92;39.87
48848;BME280;36611;51.638;5.784;2022-07-29T00:40:55;101499.56;;;22.93;40.30
48848;BME280;36611;51.638;5.784;2022-07-29T00:43:23;101503.19;;;22.93;40.25
48848;BME280;36611;51.638;5.784;2022-07-29T00:45:50;101498.91;;;22.91;40.83
48848;BME280;36611;51.638;5.784;2022-07-29T00:48:17;101503.69;;;22.89;40.91
48848;BME280;36611;51.638;5.784;2022-07-29T00:50:43;101521.69;;;22.83;41.83
48848;BME280;36611;51.638;5.784;2022-07-29T00:53:11;101524.22;;;22.76;42.64
48848;BME280;36611;51.638;5.784;2022-07-29T00:55:38;101524.22;;;22.68;43.12
48848;BME280;36611;51.638;5.784;2022-07-29T00:58:06;101528.66;;;22.61;43.29
48848;BME280;36611;51.638;5.784;2022-07-29T01:00:33;101522.84;;;22.48;43.38
48848;BME280;36611;51.638;5.784;2022-07-29T01:03:01;101512.06;;;22.30;44.15
48848;BME280;36611;51.638;5.784;2022-07-29T01:05:30;101510.28;;;22.13;44.16
48848;BME280;36611;51.638;5.784;2022-07-29T01:08:17;101506.81;;;21.95;44.66
48848;BME280;36611;51.638;5.784;2022-07-29T01:10:45;101511.72;;;21.83;44.94
48848;BME280;36611;51.638;5.784;2022-07-29T01:13:14;101521.78;;;21.74;45.48
48848;BME280;36611;51.638;5.784;2022-07-29T01:15:49;101528.59;;;21.70;46.05
48848;BME280;36611;51.638;5.784;2022-07-29T01:18:28;101541.41;;;21.70;46.46
48848;BME280;36611;51.638;5.784;2022-07-29T01:24:14;101571.59;;;21.60;47.03
48848;BME280;36611;51.638;5.784;2022-07-29T01:26:57;101572.78;;;21.58;46.92
48848;BME280;36611;51.638;5.784;2022-07-29T01:29:55;101584.00;;;21.54;47.42
48848;BME280;36611;51.638;5.784;2022-07-29T01:32:26;101593.81;;;21.57;47.03
48848;BME280;36611;51.638;5.784;2022-07-29T01:35:19;101580.13;;;21.57;47.64
48848;BME280;36611;51.638;5.784;2022-07-29T01:38:18;101577.56;;;21.55;48.08
48848;BME280;36611;51.638;5.784;2022-07-29T01:40:49;101578.56;;;21.54;47.67
48848;BME280;36611;51.638;5.784;2022-07-29T01:43:21;101565.91;;;21.53;47.67
48848;BME280;36611;51.638;5.784;2022-07-29T01:45:54;101552.34;;;21.44;48.03
48848;BME280;36611;51.638;5.784;2022-07-29T01:48:49;101551.56;;;21.25;48.57
48848;BME280;36611;51.638;5.784;2022-07-29T01:51:24;101558.28;;;21.13;48.70
48848;BME280;36611;51.638;5.784;2022-07-29T01:54:12;101542.88;;;21.04;48.81
48848;BME280;36611;51.638;5.784;2022-07-29T01:56:42;101531.19;;;20.94;49.48
48848;BME280;36611;51.638;5.784;2022-07-29T01:59:10;101524.97;;;20.84;49.37
48848;BME280;36611;51.638;5.784;2022-07-29T02:01:39;101520.97;;;20.78;49.67
48848;BME280;36611;51.638;5.784;2022-07-29T02:04:08;101508.50;;;20.76;49.68
48848;BME280;36611;51.638;5.784;2022-07-29T02:06:37;101504.22;;;20.73;49.97
48848;BME280;36611;51.638;5.784;2022-07-29T02:09:05;101478.94;;;20.71;50.07
48848;BME280;36611;51.638;5.784;2022-07-29T02:11:35;101461.03;;;20.69;50.13
48848;BME280;36611;51.638;5.784;2022-07-29T02:14:04;101452.28;;;20.65;50.47
48848;BME280;36611;51.638;5.784;2022-07-29T02:16:32;101446.13;;;20.63;50.85
48848;BME280;36611;51.638;5.784;2022-07-29T02:19:02;101452.06;;;20.58;50.83
48848;BME280;36611;51.638;5.784;2022-07-29T02:21:30;101458.16;;;20.52;50.88
48848;BME280;36611;51.638;5.784;2022-07-29T02:24:04;101459.34;;;20.50;50.81
48848;BME280;36611;51.638;5.784;2022-07-29T02:26:32;101458.31;;;20.51;50.85
48848;BME280;36611;51.638;5.784;2022-07-29T02:29:00;101454.59;;;20.52;50.91
48848;BME280;36611;51.638;5.784;2022-07-29T02:31:32;101432.91;;;20.50;51.26
48848;BME280;36611;51.638;5.784;2022-07-29T02:34:06;101434.25;;;20.46;51.20
48848;BME280;36611;51.638;5.784;2022-07-29T02:36:34;101424.50;;;20.44;51.61
48848;BME280;36611;51.638;5.784;2022-07-29T02:39:02;101424.81;;;20.41;51.31
48848;BME280;36611;51.638;5.784;2022-07-29T02:41:35;101437.91;;;20.37;51.67
48848;BME280;36611;51.638;5.784;2022-07-29T02:44:13;101419.28;;;20.33;51.64
48848;BME280;36611;51.638;5.784;2022-07-29T02:46:45;101420.44;;;20.30;51.92
48848;BME280;36611;51.638;5.784;2022-07-29T02:49:28;101418.75;;;20.29;52.07
48848;BME280;36611;51.638;5.784;2022-07-29T02:52:03;101418.19;;;20.25;52.25
48848;BME280;36611;51.638;5.784;2022-07-29T02:54:41;101422.94;;;20.23;51.99
48848;BME280;36611;51.638;5.784;2022-07-29T02:57:20;101421.56;;;20.19;52.12
48848;BME280;36611;51.638;5.784;2022-07-29T02:59:51;101426.84;;;20.21;52.30
48848;BME280;36611;51.638;5.784;2022-07-29T03:02:20;101435.91;;;20.21;52.46
48848;BME280;36611;51.638;5.784;2022-07-29T03:04:47;101423.97;;;20.22;52.43
48848;BME280;36611;51.638;5.784;2022-07-29T03:07:18;101430.44;;;20.21;52.65
48848;BME280;36611;51.638;5.784;2022-07-29T03:09:45;101432.78;;;20.16;52.11
48848;BME280;36611;51.638;5.784;2022-07-29T03:12:13;101430.22;;;20.15;52.28
48848;BME280;36611;51.638;5.784;2022-07-29T03:14:42;101424.91;;;20.13;52.53
48848;BME280;36611;51.638;5.784;2022-07-29T03:17:09;101427.09;;;20.10;52.84
48848;BME280;36611;51.638;5.784;2022-07-29T03:19:36;101426.53;;;20.06;52.63
48848;BME280;36611;51.638;5.784;2022-07-29T03:22:03;101420.09;;;20.07;53.02
48848;BME280;36611;51.638;5.784;2022-07-29T03:24:35;101428.38;;;20.06;52.76
48848;BME280;36611;51.638;5.784;2022-07-29T03:27:03;101422.94;;;20.06;52.63
48848;BME280;36611;51.638;5.784;2022-07-29T03:29:31;101430.13;;;20.07;52.72
48848;BME280;36611;51.638;5.784;2022-07-29T03:32:02;101428.25;;;20.07;52.87
48848;BME280;36611;51.638;5.784;2022-07-29T03:34:36;101421.97;;;20.07;53.01
48848;BME280;36611;51.638;5.784;2022-07-29T03:37:04;101434.56;;;20.08;53.06
48848;BME280;36611;51.638;5.784;2022-07-29T03:39:38;101436.28;;;20.09;53.14
48848;BME280;36611;51.638;5.784;2022-07-29T03:42:08;101431.69;;;20.09;53.25
48848;BME280;36611;51.638;5.784;2022-07-29T03:44:37;101427.94;;;20.10;52.96
48848;BME280;36611;51.638;5.784;2022-07-29T03:47:06;101435.81;;;20.13;53.20
48848;BME280;36611;51.638;5.784;2022-07-29T03:49:36;101439.09;;;20.17;53.20
48848;BME280;36611;51.638;5.784;2022-07-29T03:52:04;101442.69;;;20.17;53.58
48848;BME280;36611;51.638;5.784;2022-07-29T03:54:31;101441.50;;;20.20;52.96
48848;BME280;36611;51.638;5.784;2022-07-29T03:57:01;101447.81;;;20.20;53.14
48848;BME280;36611;51.638;5.784;2022-07-29T03:59:30;101448.66;;;20.21;53.57
48848;BME280;36611;51.638;5.784;2022-07-29T04:01:57;101445.09;;;20.20;53.47
48848;BME280;36611;51.638;5.784;2022-07-29T04:04:25;101443.38;;;20.19;53.52
48848;BME280;36611;51.638;5.784;2022-07-29T04:06:54;101445.41;;;20.17;53.54
48848;BME280;36611;51.638;5.784;2022-07-29T04:09:20;101437.91;;;20.19;53.53
48848;BME280;36611;51.638;5.784;2022-07-29T04:11:47;101451.41;;;20.21;53.79
48848;BME280;36611;51.638;5.784;2022-07-29T04:14:33;101443.53;;;20.18;53.59
48848;BME280;36611;51.638;5.784;2022-07-29T04:17:03;101448.13;;;20.17;53.40
48848;BME280;36611;51.638;5.784;2022-07-29T04:19:31;101441.66;;;20.18;53.85
48848;BME280;36611;51.638;5.784;2022-07-29T04:21:59;101443.06;;;20.22;53.77
48848;BME280;36611;51.638;5.784;2022-07-29T04:24:27;101451.94;;;20.24;53.41
48848;BME280;36611;51.638;5.784;2022-07-29T04:26:54;101455.22;;;20.28;53.90
48848;BME280;36611;51.638;5.784;2022-07-29T04:29:20;101452.47;;;20.28;53.49
48848;BME280;36611;51.638;5.784;2022-07-29T04:31:47;101452.31;;;20.29;53.93
48848;BME280;36611;51.638;5.784;2022-07-29T04:34:15;101446.50;;;20.24;53.90
48848;BME280;36611;51.638;5.784;2022-07-29T04:36:42;101447.97;;;20.19;53.87
48848;BME280;36611;51.638;5.784;2022-07-29T04:39:09;101449.13;;;20.16;53.72
48848;BME280;36611;51.638;5.784;2022-07-29T04:41:36;101457.47;;;20.15;53.98
48848;BME280;36611;51.638;5.784;2022-07-29T04:44:03;101460.06;;;20.16;54.31
48848;BME280;36611;51.638;5.784;2022-07-29T04:46:33;101473.69;;;20.16;53.88
48848;BME280;36611;51.638;5.784;2022-07-29T04:49:00;101478.13;;;20.17;54.13
48848;BME280;36611;51.638;5.784;2022-07-29T04:51:27;101477.81;;;20.20;53.95
48848;BME280;36611;51.638;5.784;2022-07-29T04:53:55;101476.66;;;20.23;54.01
48848;BME280;36611;51.638;5.784;2022-07-29T04:56:22;101464.72;;;20.24;54.25
48848;BME280;36611;51.638;5.784;2022-07-29T04:58:49;101464.88;;;20.22;54.13
48848;BME280;36611;51.638;5.784;2022-07-29T05:01:16;101482.25;;;20.21;54.37
48848;BME280;36611;51.638;5.784;2022-07-29T05:03:46;101489.59;;;20.21;54.03
48848;BME280;36611;51.638;5.784;2022-07-29T05:06:13;101496.06;;;20.20;53.96
48848;BME280;36611;51.638;5.784;2022-07-29T05:08:39;101492.47;;;20.19;54.25
48848;BME280;36611;51.638;5.784;2022-07-29T05:11:07;101489.91;;;20.18;54.26
48848;BME280;36611;51.638;5.784;2022-07-29T05:13:37;101492.63;;;20.18;54.27
48848;BME280;36611;51.638;5.784;2022-07-29T05:16:12;101484.75;;;20.15;53.94
48848;BME280;36611;51.638;5.784;2022-07-29T05:18:39;101478.06;;;20.09;53.96
48848;BME280;36611;51.638;5.784;2022-07-29T05:21:06;101475.91;;;20.03;54.32
48848;BME280;36611;51.638;5.784;2022-07-29T05:23:33;101465.63;;;19.97;54.13
48848;BME280;36611;51.638;5.784;2022-07-29T05:26:00;101487.75;;;19.94;54.54
48848;BME280;36611;51.638;5.784;2022-07-29T05:28:26;101498.97;;;19.91;54.76
48848;BME280;36611;51.638;5.784;2022-07-29T05:30:53;101502.38;;;19.93;54.42
48848;BME280;36611;51.638;5.784;2022-07-29T05:33:24;101484.16;;;19.93;54.83
48848;BME280;36611;51.638;5.784;2022-07-29T05:36:05;101484.63;;;19.89;54.65
48848;BME280;36611;51.638;5.784;2022-07-29T05:38:36;101490.06;;;19.89;55.07
48848;BME280;36611;51.638;5.784;2022-07-29T05:41:04;101507.84;;;19.93;54.76
48848;BME280;36611;51.638;5.784;2022-07-29T05:43:32;101494.28;;;20.01;54.87
48848;BME280;36611;51.638;5.784;2022-07-29T05:45:59;101495.84;;;20.04;54.64
48848;BME280;36611;51.638;5.784;2022-07-29T05:48:26;101474.19;;;20.02;54.83
48848;BME280;36611;51.638;5.784;2022-07-29T05:50:53;101486.13;;;20.01;55.03
48848;BME280;36611;51.638;5.784;2022-07-29T05:53:24;101489.84;;;20.00;55.24
48848;BME280;36611;51.638;5.784;2022-07-29T05:55:51;101493.28;;;20.02;54.98
48848;BME280;36611;51.638;5.784;2022-07-29T05:58:18;101496.16;;;20.00;55.19
48848;BME280;36611;51.638;5.784;2022-07-29T06:00:45;101506.91;;;20.02;55.33
48848;BME280;36611;51.638;5.784;2022-07-29T06:03:12;101501.47;;;20.02;54.96
48848;BME280;36611;51.638;5.784;2022-07-29T06:05:39;101506.06;;;20.02;55.37
48848;BME280;36611;51.638;5.784;2022-07-29T06:08:05;101507.63;;;20.04;55.17
48848;BME280;36611;51.638;5.784;2022-07-29T06:10:36;101503.50;;;20.00;54.88
48848;BME280;36611;51.638;5.784;2022-07-29T06:13:04;101494.75;;;19.96;55.23
48848;BME280;36611;51.638;5.784;2022-07-29T06:15:31;101493.19;;;19.94;55.09
48848;BME280;36611;51.638;5.784;2022-07-29T06:17:58;101494.38;;;19.91;55.51
48848;BME280;36611;51.638;5.784;2022-07-29T06:20:30;101489.06;;;19.90;55.60
48848;BME280;36611;51.638;5.784;2022-07-29T06:23:02;101489.91;;;19.90;55.26
48848;BME280;36611;51.638;5.784;2022-07-29T06:25:30;101496.06;;;19.92;55.57
48848;BME280;36611;51.638;5.784;2022-07-29T06:28:01;101491.47;;;19.93;55.47
48848;BME280;36611;51.638;5.784;2022-07-29T06:30:27;101500.38;;;19.95;55.77
48848;BME280;36611;51.638;5.784;2022-07-29T06:32:59;101504.97;;;19.94;55.76
48848;BME280;36611;51.638;5.784;2022-07-29T06:35:28;101516.41;;;19.98;55.71
48848;BME280;36611;51.638;5.784;2022-07-29T06:38:06;101506.75;;;20.04;55.76
48848;BME280;36611;51.638;5.784;2022-07-29T06:40:53;101513.50;;;20.09;55.45
48848;BME280;36611;51.638;5.784;2022-07-29T06:43:40;101507.75;;;20.12;55.46
48848;BME280;36611;51.638;5.784;2022-07-29T06:46:19;101504.00;;;20.13;55.54
48848;BME280;36611;51.638;5.784;2022-07-29T06:48:46;101502.44;;;20.11;55.35
48848;BME280;36611;51.638;5.784;2022-07-29T06:51:17;101499.72;;;20.11;55.35
48848;BME280;36611;51.638;5.784;2022-07-29T06:53:54;101496.97;;;20.11;55.33
48848;BME280;36611;51.638;5.784;2022-07-29T06:56:25;101496.13;;;20.10;55.55
48848;BME280;36611;51.638;5.784;2022-07-29T06:58:52;101501.44;;;20.12;55.55
48848;BME280;36611;51.638;5.784;2022-07-29T07:01:19;101497.53;;;20.14;55.69
48848;BME280;36611;51.638;5.784;2022-07-29T07:03:48;101504.38;;;20.18;55.92
48848;BME280;36611;51.638;5.784;2022-07-29T07:06:15;101499.31;;;20.23;55.57
48848;BME280;36611;51.638;5.784;2022-07-29T07:08:42;101498.31;;;20.24;55.49
48848;BME280;36611;51.638;5.784;2022-07-29T07:11:08;101496.59;;;20.23;55.94
48848;BME280;36611;51.638;5.784;2022-07-29T07:13:36;101487.72;;;20.21;55.60
48848;BME280;36611;51.638;5.784;2022-07-29T07:16:03;101504.06;;;20.21;55.68
48848;BME280;36611;51.638;5.784;2022-07-29T07:18:30;101498.63;;;20.21;55.53
48848;BME280;36611;51.638;5.784;2022-07-29T07:20:57;101511.41;;;20.21;55.97
48848;BME280;36611;51.638;5.784;2022-07-29T07:23:49;101516.00;;;20.20;55.68
48848;BME280;36611;51.638;5.784;2022-07-29T07:26:16;101519.28;;;20.24;55.76
48848;BME280;36611;51.638;5.784;2022-07-29T07:28:42;101523.72;;;20.25;55.95
48848;BME280;36611;51.638;5.784;2022-07-29T07:31:09;101521.69;;;20.27;55.94
48848;BME280;36611;51.638;5.784;2022-07-29T07:33:36;101515.91;;;20.30;56.00
48848;BME280;36611;51.638;5.784;2022-07-29T07:36:03;101514.75;;;20.33;55.64
48848;BME280;36611;51.638;5.784;2022-07-29T07:38:29;101514.75;;;20.33;55.57
48848;BME280;36611;51.638;5.784;2022-07-29T07:40:56;101527.38;;;20.34;55.43
48848;BME280;36611;51.638;5.784;2022-07-29T07:43:24;101555.38;;;20.36;55.81
48848;BME280;36611;51.638;5.784;2022-07-29T07:45:50;101557.94;;;20.37;55.35
48848;BME280;36611;51.638;5.784;2022-07-29T07:48:17;101557.50;;;20.42;55.47
48848;BME280;36611;51.638;5.784;2022-07-29T07:50:44;101536.91;;;20.47;55.61
48848;BME280;36611;51.638;5.784;2022-07-29T07:53:12;101542.22;;;20.49;55.47
48848;BME280;36611;51.638;5.784;2022-07-29T07:55:42;101538.31;;;20.51;55.26
48848;BME280;36611;51.638;5.784;2022-07-29T07:58:29;101525.22;;;20.55;55.50
48848;BME280;36611;51.638;5.784;2022-07-29T08:00:56;101512.28;;;20.57;55.18
48848;BME280;36611;51.638;5.784;2022-07-29T08:03:26;101525.44;;;20.61;55.38
48848;BME280;36611;51.638;5.784;2022-07-29T08:05:53;101518.66;;;20.66;55.61
48848;BME280;36611;51.638;5.784;2022-07-29T08:08:20;101520.75;;;20.72;55.40
48848;BME280;36611;51.638;5.784;2022-07-29T08:10:47;101527.28;;;20.79;55.47
48848;BME280;36611;51.638;5.784;2022-07-29T08:13:25;101533.53;;;20.89;55.51
48848;BME280;36611;51.638;5.784;2022-07-29T08:15:54;101542.50;;;20.99;55.70
48848;BME280;36611;51.638;5.784;2022-07-29T08:18:25;101538.63;;;21.10;55.08
48848;BME280;36611;51.638;5.784;2022-07-29T08:20:52;101537.66;;;21.19;55.30
48848;BME280;36611;51.638;5.784;2022-07-29T08:23:22;101550.38;;;21.28;55.12
48848;BME280;36611;51.638;5.784;2022-07-29T08:25:50;101537.44;;;21.30;54.84
48848;BME280;36611;51.638;5.784;2022-07-29T08:28:20;101536.41;;;21.31;54.45
48848;BME280;36611;51.638;5.784;2022-07-29T08:30:51;101541.06;;;21.39;54.87
48848;BME280;36611;51.638;5.784;2022-07-29T08:33:18;101547.09;;;21.50;54.77
48848;BME280;36611;51.638;5.784;2022-07-29T08:35:45;101545.00;;;21.70;54.57
48848;BME280;36611;51.638;5.784;2022-07-29T08:38:12;101542.53;;;21.93;54.23
48848;BME280;36611;51.638;5.784;2022-07-29T08:40:39;101544.16;;;22.12;54.11
48848;BME280;36611;51.638;5.784;2022-07-29T08:43:08;101545.41;;;22.34;54.11
48848;BME280;36611;51.638;5.784;2022-07-29T08:45:43;101552.97;;;22.56;53.60
48848;BME280;36611;51.638;5.784;2022-07-29T08:48:21;101560.88;;;22.83;53.28
48848;BME280;36611;51.638;5.784;2022-07-29T08:50:52;101565.13;;;23.02;52.93
48848;BME280;36611;51.638;5.784;2022-07-29T08:53:21;101555.72;;;23.21;52.79
48848;BME280;36611;51.638;5.784;2022-07-29T08:55:49;101548.66;;;23.43;52.64
48848;BME280;36611;51.638;5.784;2022-07-29T08:58:16;101556.63;;;23.69;52.37
48848;BME280;36611;51.638;5.784;2022-07-29T09:00:51;101552.47;;;23.89;51.70
48848;BME280;36611;51.638;5.784;2022-07-29T09:03:29;101557.00;;;24.05;51.32
48848;BME280;36611;51.638;5.784;2022-07-29T09:05:58;101553.00;;;24.16;51.09
48848;BME280;36611;51.638;5.784;2022-07-29T09:08:24;101551.75;;;24.26;50.99
48848;BME280;36611;51.638;5.784;2022-07-29T09:10:51;101556.47;;;24.40;50.43
48848;BME280;36611;51.638;5.784;2022-07-29T09:13:22;101553.69;;;24.49;50.10
48848;BME280;36611;51.638;5.784;2022-07-29T09:15:49;101553.84;;;24.55;49.69
48848;BME280;36611;51.638;5.784;2022-07-29T09:18:45;101549.81;;;24.66;49.67
48848;BME280;36611;51.638;5.784;2022-07-29T09:21:14;101548.63;;;24.83;49.47
48848;BME280;36611;51.638;5.784;2022-07-29T09:24:11;101547.66;;;24.99;49.01
48848;BME280;36611;51.638;5.784;2022-07-29T09:26:43;101548.53;;;25.14;48.69
48848;BME280;36611;51.638;5.784;2022-07-29T09:29:15;101540.31;;;25.29;48.49
48848;BME280;36611;51.638;5.784;2022-07-29T09:32:20;101537.88;;;25.49;48.27
48848;BME280;36611;51.638;5.784;2022-07-29T09:34:46;101544.91;;;25.66;48.40
48848;BME280;36611;51.638;5.784;2022-07-29T09:37:26;101544.81;;;25.74;47.74
48848;BME280;36611;51.638;5.784;2022-07-29T09:39:53;101537.97;;;25.85;47.57
48848;BME280;36611;51.638;5.784;2022-07-29T09:42:29;101544.41;;;25.92;47.08
48848;BME280;36611;51.638;5.784;2022-07-29T09:44:59;101551.16;;;26.04;47.22
48848;BME280;36611;51.638;5.784;2022-07-29T09:47:41;101553.59;;;26.14;46.70
48848;BME280;36611;51.638;5.784;2022-07-29T09:50:07;101555.44;;;26.28;46.65
48848;BME280;36611;51.638;5.784;2022-07-29T09:52:57;101550.97;;;26.42;46.26
48848;BME280;36611;51.638;5.784;2022-07-29T09:55:23;101553.84;;;26.55;46.02
48848;BME280;36611;51.638;5.784;2022-07-29T09:57:50;101556.94;;;26.67;45.92
48848;BME280;36611;51.638;5.784;2022-07-29T10:00:18;101557.09;;;26.80;45.62
48848;BME280;36611;51.638;5.784;2022-07-29T10:02:47;101551.88;;;26.91;45.24
48848;BME280;36611;51.638;5.784;2022-07-29T10:07:52;101551.22;;;27.11;44.90
48848;BME280;36611;51.638;5.784;2022-07-29T10:10:33;101552.78;;;27.20;44.67
48848;BME280;36611;51.638;5.784;2022-07-29T10:13:07;101542.84;;;27.26;44.60
48848;BME280;36611;51.638;5.784;2022-07-29T10:15:43;101549.25;;;27.33;44.26
48848;BME280;36611;51.638;5.784;2022-07-29T10:18:13;101550.16;;;27.40;44.11
48848;BME280;36611;51.638;5.784;2022-07-29T10:20:41;101547.50;;;27.53;44.19
48848;BME280;36611;51.638;5.784;2022-07-29T10:23:09;101549.75;;;27.71;44.10
48848;BME280;36611;51.638;5.784;2022-07-29T10:25:36;101548.16;;;27.90;44.17
48848;BME280;36611;51.638;5.784;2022-07-29T10:28:05;101543.97;;;28.07;43.83
48848;BME280;36611;51.638;5.784;2022-07-29T10:30:32;101540.28;;;28.28;43.33
48848;BME280;36611;51.638;5.784;2022-07-29T10:39:05;101535.03;;;28.79;42.27
48848;BME280;36611;51.638;5.784;2022-07-29T10:41:59;101532.72;;;28.89;41.88
48848;BME280;36611;51.638;5.784;2022-07-29T10:44:29;101535.25;;;28.97;41.39
48848;BME280;36611;51.638;5.784;2022-07-29T10:46:57;101529.75;;;29.04;40.91
48848;BME280;36611;51.638;5.784;2022-07-29T10:49:26;101530.19;;;29.14;40.63
48848;BME280;36611;51.638;5.784;2022-07-29T10:52:15;101531.00;;;29.21;40.34
48848;BME280;36611;51.638;5.784;2022-07-29T10:54:46;101535.47;;;29.29;40.11
48848;BME280;36611;51.638;5.784;2022-07-29T10:57:22;101528.63;;;29.38;39.95
48848;BME280;36611;51.638;5.784;2022-07-29T11:05:19;101533.72;;;29.61;39.28
48848;BME280;36611;51.638;5.784;2022-07-29T11:10:47;101529.00;;;29.81;38.80
48848;BME280;36611;51.638;5.784;2022-07-29T11:16:12;101522.72;;;30.06;38.46
48848;BME280;36611;51.638;5.784;2022-07-29T11:21:41;101522.69;;;30.12;37.90
48848;BME280;36611;51.638;5.784;2022-07-29T11:24:25;101531.38;;;30.22;37.63
48848;BME280;36611;51.638;5.784;2022-07-29T11:27:16;101532.81;;;30.31;37.34
48848;BME280;36611;51.638;5.784;2022-07-29T11:30:03;101528.91;;;30.39;36.92
48848;BME280;36611;51.638;5.784;2022-07-29T11:32:41;101528.88;;;30.46;36.68
48848;BME280;36611;51.638;5.784;2022-07-29T11:35:28;101528.84;;;30.52;36.72
48848;BME280;36611;51.638;5.784;2022-07-29T11:38:24;101527.09;;;30.58;36.41
48848;BME280;36611;51.638;5.784;2022-07-29T11:41:27;101523.25;;;30.65;36.52
48848;BME280;36611;51.638;5.784;2022-07-29T11:44:02;101522.56;;;30.70;36.26
48848;BME280;36611;51.638;5.784;2022-07-29T11:46:48;101510.41;;;30.71;36.31
48848;BME280;36611;51.638;5.784;2022-07-29T11:51:57;101519.22;;;30.86;36.35
48848;BME280;36611;51.638;5.784;2022-07-29T11:54:34;101515.56;;;30.92;35.83
48848;BME280;36611;51.638;5.784;2022-07-29T11:57:21;101517.41;;;30.98;36.00
48848;BME280;36611;51.638;5.784;2022-07-29T11:59:48;101512.19;;;31.09;36.00
48848;BME280;36611;51.638;5.784;2022-07-29T12:02:16;101522.41;;;31.15;35.69
48848;BME280;36611;51.638;5.784;2022-07-29T12:05:02;101514.72;;;31.17;34.96
48848;BME280;36611;51.638;5.784;2022-07-29T12:07:37;101520.44;;;31.22;35.34
48848;BME280;36611;51.638;5.784;2022-07-29T12:10:05;101528.25;;;31.32;35.20
48848;BME280;36611;51.638;5.784;2022-07-29T12:12:37;101524.78;;;31.36;35.06
48848;BME280;36611;51.638;5.784;2022-07-29T12:15:18;101514.69;;;31.42;34.54
48848;BME280;36611;51.638;5.784;2022-07-29T12:17:47;101526.41;;;31.44;34.44
48848;BME280;36611;51.638;5.784;2022-07-29T12:20:23;101519.63;;;31.40;34.43
48848;BME280;36611;51.638;5.784;2022-07-29T12:22:51;101515.31;;;31.44;34.51
48848;BME280;36611;51.638;5.784;2022-07-29T12:25:21;101522.25;;;31.53;34.11
48848;BME280;36611;51.638;5.784;2022-07-29T12:28:06;101514.84;;;31.65;34.27
48848;BME280;36611;51.638;5.784;2022-07-29T12:30:47;101506.22;;;31.73;34.13
48848;BME280;36611;51.638;5.784;2022-07-29T12:33:24;101510.00;;;31.79;34.07
48848;BME280;36611;51.638;5.784;2022-07-29T12:35:54;101511.00;;;31.84;33.59
48848;BME280;36611;51.638;5.784;2022-07-29T12:38:42;101517.31;;;31.91;33.95
48848;BME280;36611;51.638;5.784;2022-07-29T12:41:10;101523.44;;;32.00;33.75
48848;BME280;36611;51.638;5.784;2022-07-29T12:43:51;101520.19;;;32.03;33.09
48848;BME280;36611;51.638;5.784;2022-07-29T12:46:18;101514.28;;;32.11;33.48
48848;BME280;36611;51.638;5.784;2022-07-29T12:48:45;101515.59;;;32.27;33.39
48848;BME280;36611;51.638;5.784;2022-07-29T12:51:15;101509.47;;;32.37;33.11
48848;BME280;36611;51.638;5.784;2022-07-29T12:54:05;101511.50;;;32.30;32.89
48848;BME280;36611;51.638;5.784;2022-07-29T12:56:33;101512.56;;;32.29;32.71
48848;BME280;36611;51.638;5.784;2022-07-29T12:59:21;101507.50;;;32.26;32.72
48848;BME280;36611;51.638;5.784;2022-07-29T13:01:51;101504.78;;;32.19;32.67
48848;BME280;36611;51.638;5.784;2022-07-29T13:04:54;101504.03;;;32.12;32.04
48848;BME280;36611;51.638;5.784;2022-07-29T13:07:26;101502.69;;;32.14;31.86
48848;BME280;36611;51.638;5.784;2022-07-29T13:10:19;101500.53;;;32.16;32.11
48848;BME280;36611;51.638;5.784;2022-07-29T13:13:13;101499.94;;;32.14;31.86
48848;BME280;36611;51.638;5.784;2022-07-29T13:15:42;101500.06;;;32.19;32.56
48848;BME280;36611;51.638;5.784;2022-07-29T13:18:30;101503.66;;;32.38;32.64
48848;BME280;36611;51.638;5.784;2022-07-29T13:21:07;101499.81;;;32.51;31.95
48848;BME280;36611;51.638;5.784;2022-07-29T13:23:39;101505.84;;;32.48;31.68
48848;BME280;36611;51.638;5.784;2022-07-29T13:26:10;101499.81;;;32.51;31.69
48848;BME280;36611;51.638;5.784;2022-07-29T13:28:42;101506.22;;;32.51;31.56
48848;BME280;36611;51.638;5.784;2022-07-29T13:31:09;101502.00;;;32.49;31.72
48848;BME280;36611;51.638;5.784;2022-07-29T13:33:40;101507.44;;;32.55;31.11
48848;BME280;36611;51.638;5.784;2022-07-29T13:36:07;101501.16;;;32.60;31.41
48848;BME280;36611;51.638;5.784;2022-07-29T13:38:33;101503.00;;;32.66;31.34
48848;BME280;36611;51.638;5.784;2022-07-29T13:41:01;101487.91;;;32.74;30.91
48848;BME280;36611;51.638;5.784;2022-07-29T13:43:27;101498.13;;;32.80;30.81